Time;durP1;ratioP1;P1;durP2;ratioP2;P2;SDS_P1;SDS_P2;PMS_P1;PMS_P2;Temp;Humidity;BMP_temperature;BMP_pressure;BME280_temperature;BME280_humidity;BME280_pressure;Samples;Min_cycle;Max_cycle;Signal;HPM_P1;HPM_P2
2021/07/20 00:03:49;;;;;;;22.05;16.85;;;;;;;15.54;60.38;100249.66;10406674;28;20485;-59
2021/07/20 00:08:51;;;;;;;22.83;16.55;;;;;;;15.54;60.20;100251.44;10405937;28;20111;-59
2021/07/20 00:13:52;;;;;;;20.63;16.98;;;;;;;15.36;60.54;100249.22;10405266;28;20140;-59
2021/07/20 00:18:54;;;;;;;28.85;18.40;;;;;;;15.39;60.26;100246.34;10405600;28;20041;-59
2021/07/20 00:23:56;;;;;;;22.80;17.77;;;;;;;15.35;60.56;100251.94;10405280;28;20129;-59
2021/07/20 00:28:57;;;;;;;25.25;18.02;;;;;;;15.22;60.51;100259.94;10404730;28;20080;-59
2021/07/20 00:33:59;;;;;;;20.95;16.48;;;;;;;15.11;61.00;100251.13;10404853;28;20132;-59
2021/07/20 00:39:01;;;;;;;24.17;16.73;;;;;;;15.17;60.82;100248.88;10404748;28;20080;-59
2021/07/20 00:44:03;;;;;;;22.42;17.38;;;;;;;15.06;60.91;100250.63;10405056;28;20299;-59
2021/07/20 00:49:05;;;;;;;22.27;16.65;;;;;;;15.01;61.27;100252.75;10404595;28;20137;-59
2021/07/20 00:54:06;;;;;;;22.25;16.73;;;;;;;14.95;61.15;100242.66;10404779;28;20124;-59
2021/07/20 00:59:10;;;;;;;21.02;16.60;;;;;;;14.91;61.34;100242.06;10404763;28;20067;-59
2021/07/20 01:04:11;;;;;;;25.15;17.38;;;;;;;14.81;61.52;100238.41;10419351;28;20050;-59
2021/07/20 01:09:14;;;;;;;22.50;16.20;;;;;;;14.76;61.84;100242.31;10404429;28;20482;-59
2021/07/20 01:14:16;;;;;;;23.67;17.58;;;;;;;14.82;61.66;100241.88;10404729;28;20045;-59
2021/07/20 01:19:18;;;;;;;26.42;17.17;;;;;;;14.88;61.66;100241.44;10403907;28;20062;-59
2021/07/20 01:24:20;;;;;;;20.83;17.48;;;;;;;14.90;61.31;100239.53;10403145;28;20506;-59
2021/07/20 01:29:23;;;;;;;22.70;16.75;;;;;;;14.90;61.07;100236.91;10409004;28;20453;-59
2021/07/20 01:34:24;;;;;;;28.25;17.00;;;;;;;14.80;61.36;100230.63;10412067;28;20052;-59
2021/07/20 01:39:28;;;;;;;24.60;16.92;;;;;;;14.77;61.24;100236.94;10411521;28;20088;-59
2021/07/20 01:44:29;;;;;;;24.70;16.77;;;;;;;14.68;60.99;100232.31;10411152;28;20132;-58
2021/07/20 01:49:32;;;;;;;25.05;18.42;;;;;;;14.44;61.43;100239.31;10411142;28;20413;-59
2021/07/20 01:54:34;;;;;;;24.98;17.23;;;;;;;14.38;61.75;100240.59;10411312;28;20543;-58
2021/07/20 01:59:35;;;;;;;24.85;17.70;;;;;;;14.40;61.98;100243.09;10410586;28;20128;-61
2021/07/20 02:09:53;;;;;;;22.38;16.95;;;;;;;14.35;61.83;100253.13;10415105;28;20497;-59
2021/07/20 02:14:57;;;;;;;23.55;16.42;;;;;;;14.29;62.25;100240.38;10417465;28;20130;-59
2021/07/20 02:20:06;;;;;;;23.35;16.35;;;;;;;14.33;62.07;100242.69;10415580;28;20140;-59
2021/07/20 02:25:09;;;;;;;22.00;16.10;;;;;;;14.35;61.91;100239.97;10415061;28;20473;-59
2021/07/20 02:30:14;;;;;;;23.02;15.85;;;;;;;14.34;61.72;100236.50;10417050;28;20142;-59
2021/07/20 02:35:21;;;;;;;23.13;16.95;;;;;;;14.32;61.61;100237.53;10431940;28;20053;-59
2021/07/20 02:40:25;;;;;;;26.52;17.02;;;;;;;14.23;61.94;100238.19;10414744;28;20140;-59
2021/07/20 02:45:33;;;;;;;23.25;17.45;;;;;;;13.97;62.47;100226.84;10431461;28;20132;-59
2021/07/20 02:50:36;;;;;;;24.23;17.48;;;;;;;14.00;62.30;100229.28;10416132;28;20060;-59
2021/07/20 02:55:38;;;;;;;24.75;17.70;;;;;;;14.12;62.01;100224.94;10415673;28;20247;-59
2021/07/20 03:00:40;;;;;;;19.80;15.70;;;;;;;14.07;62.10;100232.31;10415501;28;20081;-59
2021/07/20 03:05:46;;;;;;;21.05;16.45;;;;;;;13.89;62.56;100231.78;10409418;28;20075;-59
2021/07/20 03:10:53;;;;;;;20.98;16.25;;;;;;;13.84;62.57;100239.13;10408909;28;20049;-59
2021/07/20 03:15:56;;;;;;;18.90;15.52;;;;;;;13.90;62.57;100238.75;10408066;28;20067;-59
2021/07/20 03:20:59;;;;;;;20.05;15.65;;;;;;;13.99;62.02;100230.22;10407265;28;20144;-59
2021/07/20 03:26:02;;;;;;;21.60;16.23;;;;;;;13.95;61.82;100228.75;10407656;28;20048;-59
2021/07/20 03:31:04;;;;;;;23.40;15.27;;;;;;;13.77;62.36;100237.88;10407286;28;20073;-56
2021/07/20 03:36:06;;;;;;;19.88;15.95;;;;;;;13.69;62.38;100238.41;10407707;28;20060;-59
2021/07/20 03:41:08;;;;;;;20.05;15.55;;;;;;;13.64;62.48;100231.75;10406840;28;20059;-58
2021/07/20 03:46:10;;;;;;;20.98;16.00;;;;;;;13.59;62.72;100228.63;10406677;28;20164;-59
2021/07/20 03:51:12;;;;;;;20.08;15.05;;;;;;;13.60;62.67;100233.75;10406398;28;20041;-59
2021/07/20 03:56:15;;;;;;;19.52;14.50;;;;;;;13.68;62.63;100231.47;10405352;28;20491;-59
2021/07/20 04:01:18;;;;;;;17.90;13.73;;;;;;;13.69;62.34;100234.94;10405205;28;20124;-59
2021/07/20 04:06:23;;;;;;;22.40;15.45;;;;;;;13.66;62.41;100246.50;10406037;28;20048;-58
2021/07/20 04:11:25;;;;;;;18.05;14.90;;;;;;;13.66;62.36;100245.66;10405448;28;20486;-59
2021/07/20 04:16:28;;;;;;;18.45;14.00;;;;;;;13.84;62.10;100243.56;10405574;28;20053;-59
2021/07/20 04:21:30;;;;;;;22.00;15.23;;;;;;;13.95;61.80;100243.66;10405339;28;20037;-59
2021/07/20 04:26:32;;;;;;;16.67;14.23;;;;;;;14.05;61.61;100250.81;10404899;28;20133;-59
2021/07/20 04:31:42;;;;;;;18.33;14.82;;;;;;;14.13;61.86;100253.75;10404843;28;20132;-59
2021/07/20 04:36:44;;;;;;;21.50;15.35;;;;;;;14.25;61.38;100247.66;10404763;28;20128;-59
2021/07/20 04:41:48;;;;;;;18.10;14.00;;;;;;;14.29;61.20;100243.84;10404704;28;20132;-59
2021/07/20 04:46:50;;;;;;;18.00;14.07;;;;;;;14.40;60.94;100246.59;10405103;28;20084;-59
2021/07/20 04:51:52;;;;;;;19.63;14.07;;;;;;;14.54;60.64;100257.00;10404567;28;20542;-59
2021/07/20 04:56:54;;;;;;;19.77;14.27;;;;;;;14.63;60.65;100258.16;10404155;28;20132;-59
2021/07/20 05:01:56;;;;;;;18.55;13.70;;;;;;;14.61;60.50;100260.06;10403848;28;20053;-59
2021/07/20 05:06:59;;;;;;;23.40;14.00;;;;;;;14.53;60.68;100268.47;10404237;28;20057;-59
2021/07/20 05:12:01;;;;;;;16.75;13.63;;;;;;;14.72;60.23;100272.44;10418760;28;20055;-59
2021/07/20 05:17:06;;;;;;;19.85;13.82;;;;;;;15.05;59.57;100270.00;10404076;28;20073;-59
2021/07/20 05:22:08;;;;;;;17.48;13.00;;;;;;;15.10;59.78;100266.06;10404254;28;20088;-59
2021/07/20 05:27:11;;;;;;;15.27;12.45;;;;;;;15.14;59.71;100269.34;10419016;28;20052;-59
2021/07/20 05:32:17;;;;;;;16.60;11.65;;;;;;;15.90;58.30;100272.38;10403397;28;20057;-59
2021/07/20 05:37:20;;;;;;;12.90;10.82;;;;;;;16.54;56.96;100270.91;10403754;28;20041;-59
2021/07/20 05:42:22;;;;;;;14.77;11.20;;;;;;;16.62;56.39;100271.16;10403728;28;20073;-59
2021/07/20 05:47:26;;;;;;;17.27;12.32;;;;;;;16.61;56.45;100272.94;10403612;28;20130;-59
2021/07/20 05:52:31;;;;;;;15.48;12.50;;;;;;;16.50;56.72;100278.25;10402856;28;20061;-59
2021/07/20 05:57:35;;;;;;;14.95;11.90;;;;;;;16.70;56.35;100281.94;10403356;28;20125;-59
2021/07/20 06:02:39;;;;;;;17.40;12.80;;;;;;;16.83;56.03;100285.28;10403314;28;20060;-59
2021/07/20 06:07:44;;;;;;;14.95;12.90;;;;;;;16.79;55.97;100287.31;10403616;28;20099;-59
2021/07/20 06:12:48;;;;;;;19.88;13.98;;;;;;;16.84;56.17;100290.44;10403192;28;20119;-59
2021/07/20 06:17:50;;;;;;;16.27;13.43;;;;;;;17.13;56.13;100297.84;10410006;28;20121;-59
2021/07/20 06:22:54;;;;;;;17.77;14.40;;;;;;;17.12;56.00;100289.06;10409988;28;20117;-59
2021/07/20 06:27:58;;;;;;;17.50;13.70;;;;;;;17.16;55.96;100293.13;10424615;28;20049;-59
2021/07/20 06:33:00;;;;;;;15.55;13.57;;;;;;;17.57;55.02;100282.69;10409652;28;20145;-59
2021/07/20 06:38:02;;;;;;;17.83;14.13;;;;;;;18.12;54.24;100294.75;10409410;28;20132;-59
2021/07/20 06:43:06;;;;;;;17.40;13.82;;;;;;;18.53;53.67;100293.88;10409813;28;20584;-60
2021/07/20 06:48:11;;;;;;;18.55;15.32;;;;;;;18.49;53.56;100300.41;10408422;28;20211;-59
2021/07/20 06:53:14;;;;;;;21.25;15.82;;;;;;;18.84;52.43;100302.63;10408529;28;20055;-59
2021/07/20 06:58:18;;;;;;;18.92;14.10;;;;;;;18.98;52.41;100299.59;10424083;28;20049;-59
2021/07/20 07:03:42;;;;;;;19.23;15.07;;;;;;;19.26;51.69;100298.81;10428641;28;20142;-59
2021/07/20 07:08:45;;;;;;;19.98;14.82;;;;;;;20.18;50.34;100299.09;10407193;28;20136;-59
2021/07/20 07:13:48;;;;;;;20.42;15.10;;;;;;;20.86;48.66;100297.03;10407134;28;20057;-60
2021/07/20 07:18:51;;;;;;;18.30;14.63;;;;;;;20.37;49.19;100292.88;10406484;28;20050;-59
2021/07/20 07:23:53;;;;;;;21.95;15.70;;;;;;;20.22;49.59;100295.16;10405282;28;20128;-59
2021/07/20 07:28:55;;;;;;;18.35;14.13;;;;;;;20.50;49.41;100296.03;10405791;28;20173;-59
2021/07/20 07:33:57;;;;;;;20.75;14.52;;;;;;;21.03;48.30;100299.72;10406092;28;20141;-59
2021/07/20 07:39:02;;;;;;;18.75;14.93;;;;;;;21.38;46.67;100295.44;10405835;28;20132;-59
2021/07/20 07:44:05;;;;;;;18.55;13.18;;;;;;;23.00;43.70;100285.72;10420520;28;20099;-59
2021/07/20 07:49:11;;;;;;;21.75;13.40;;;;;;;24.27;40.12;100283.28;10405105;28;20129;-60
2021/07/20 07:54:14;;;;;;;20.27;12.60;;;;;;;24.70;39.45;100281.97;10405848;28;20140;-59
2021/07/20 07:59:19;;;;;;;15.63;11.15;;;;;;;24.76;39.10;100280.47;10403962;28;20160;-60
2021/07/20 08:04:26;;;;;;;16.52;11.50;;;;;;;25.55;36.48;100281.03;10403672;28;20507;-59
2021/07/20 08:09:30;;;;;;;16.75;11.20;;;;;;;25.94;35.59;100272.00;10407992;28;20075;-60
2021/07/20 08:14:31;;;;;;;16.33;10.40;;;;;;;26.41;34.91;100269.84;10450979;28;20045;-60
2021/07/20 08:19:38;;;;;;;19.13;11.70;;;;;;;27.08;32.77;100268.66;10435594;28;20089;-60
2021/07/20 08:24:54;;;;;;;22.70;11.90;;;;;;;26.76;31.54;100265.59;10433855;28;20123;-60
2021/07/20 08:29:58;;;;;;;17.20;10.55;;;;;;;25.90;34.67;100269.66;10444815;28;20140;-59
2021/07/20 08:35:08;;;;;;;16.92;10.98;;;;;;;26.89;32.48;100261.22;10443451;28;20044;-59
2021/07/20 08:40:55;;;;;;;13.85;9.95;;;;;;;25.87;33.22;100261.16;10410359;28;20057;-60
2021/07/20 08:46:08;;;;;;;17.85;10.75;;;;;;;26.73;32.22;100263.28;10398190;28;20383;-60
2021/07/20 08:51:14;;;;;;;14.73;9.63;;;;;;;25.83;33.38;100268.72;10403066;28;20132;-60
2021/07/20 08:56:22;;;;;;;35.45;11.50;;;;;;;25.15;33.53;100267.06;10402999;28;20124;-59
2021/07/20 09:01:31;;;;;;;15.82;9.95;;;;;;;24.52;34.74;100267.19;10403091;28;20132;-59
2021/07/20 09:06:48;;;;;;;20.95;9.65;;;;;;;24.66;34.84;100275.31;10392970;28;20402;-59
2021/07/20 09:12:17;;;;;;;16.60;9.88;;;;;;;25.68;32.99;100262.50;10377868;28;20081;-59
2021/07/20 09:17:34;;;;;;;16.17;10.50;;;;;;;25.22;32.55;100276.91;10405800;28;20056;-59
2021/07/20 09:22:43;;;;;;;13.15;9.73;;;;;;;24.67;34.66;100284.19;10442428;28;20178;-59
2021/07/20 09:27:53;;;;;;;17.80;10.82;;;;;;;24.59;34.20;100281.53;10369168;28;20051;-59
2021/07/20 09:33:13;;;;;;;15.65;10.27;;;;;;;24.37;35.75;100284.97;10402138;28;20079;-59
2021/07/20 09:38:26;;;;;;;;;;;;;;;24.83;35.21;100282.31;10402617;28;20136;-59
2021/07/20 09:43:59;;;;;;;14.68;9.85;;;;;;;25.36;32.61;100275.31;10402676;28;19996;-59
2021/07/20 09:49:17;;;;;;;12.93;9.07;;;;;;;25.75;32.58;100271.47;10404524;28;20486;-59
2021/07/20 09:54:44;;;;;;;14.18;9.38;;;;;;;25.05;33.26;100269.97;10433046;28;20114;-59
2021/07/20 09:59:55;;;;;;;15.77;9.07;;;;;;;24.84;33.56;100269.72;10409226;28;20504;-59
2021/07/20 10:05:30;;;;;;;12.10;8.35;;;;;;;24.31;35.00;100266.94;10408945;28;20121;-59
2021/07/20 10:10:44;;;;;;;13.73;9.40;;;;;;;23.70;35.55;100268.31;10405170;28;20053;-59
2021/07/20 10:15:57;;;;;;;13.48;9.25;;;;;;;24.59;34.28;100266.31;10408389;28;20042;-59
2021/07/20 10:21:01;;;;;;;15.50;9.55;;;;;;;24.92;33.31;100253.63;10409070;28;20640;-59
2021/07/20 10:26:03;;;;;;;15.77;9.70;;;;;;;25.76;32.66;100251.72;10408203;28;20125;-59
2021/07/20 10:31:35;;;;;;;12.52;9.23;;;;;;;26.62;31.37;100243.13;10408452;28;20140;-59
2021/07/20 10:37:03;;;;;;;12.10;9.05;;;;;;;26.36;30.54;100238.22;10407961;28;20143;-59
2021/07/20 10:42:09;;;;;;;13.02;8.63;;;;;;;26.46;30.94;100232.56;10448010;28;20551;-59
2021/07/20 10:47:14;;;;;;;13.52;8.57;;;;;;;25.90;31.17;100232.16;10407152;28;20097;-59
2021/07/20 10:52:38;;;;;;;15.27;8.07;;;;;;;24.98;31.79;100234.19;10423232;28;20049;-59
2021/07/20 10:57:51;;;;;;;12.00;7.88;;;;;;;25.43;30.70;100220.84;10407499;28;20124;-59
2021/07/20 11:03:11;;;;;;;9.93;7.75;;;;;;;25.56;31.87;100221.09;10405975;28;20124;-60
2021/07/20 11:08:15;;;;;;;11.15;7.45;;;;;;;25.61;31.89;100207.97;10406398;28;20052;-59
2021/07/20 11:13:26;;;;;;;14.13;7.57;;;;;;;26.01;31.39;100211.31;10407550;28;20582;-59
2021/07/20 11:18:33;;;;;;;10.57;7.57;;;;;;;25.83;31.03;100207.09;10406779;28;20393;-59
2021/07/20 11:23:39;;;;;;;13.63;7.70;;;;;;;25.39;31.09;100199.97;10406761;28;20077;-59
2021/07/20 11:28:44;;;;;;;11.95;7.32;;;;;;;25.39;32.46;100200.81;10405429;28;20068;-59
2021/07/20 11:33:55;;;;;;;11.18;7.55;;;;;;;25.36;33.21;100195.00;10405847;28;21007;-59
2021/07/20 11:39:00;;;;;;;11.40;7.90;;;;;;;25.05;33.23;100197.72;10405151;28;20136;-59
2021/07/20 11:44:49;;;;;;;11.15;6.80;;;;;;;24.39;32.15;100210.75;10405347;28;20099;-59
2021/07/20 11:50:02;;;;;;;13.63;7.20;;;;;;;24.48;31.96;100205.19;10398884;28;20045;-59
2021/07/20 11:55:26;;;;;;;11.32;6.68;;;;;;;25.07;32.07;100206.38;10405147;28;20489;-59
2021/07/20 12:01:10;;;;;;;12.50;7.93;;;;;;;25.34;30.68;100202.38;10420508;28;20125;-59
2021/07/20 12:06:21;;;;;;;13.13;7.03;;;;;;;25.55;30.45;100189.16;10402146;28;20103;-59
2021/07/20 12:11:28;;;;;;;9.35;6.55;;;;;;;26.03;30.88;100194.03;10404386;28;20056;-59
2021/07/20 12:16:30;;;;;;;9.48;6.15;;;;;;;26.24;30.17;100186.06;10403140;28;20140;-60
2021/07/20 12:21:33;;;;;;;9.98;6.05;;;;;;;26.64;29.23;100192.78;10404865;28;20046;-59
2021/07/20 12:26:37;;;;;;;11.40;6.90;;;;;;;26.29;28.88;100185.50;10403315;28;20478;-60
2021/07/20 12:31:39;;;;;;;9.32;6.70;;;;;;;26.13;29.74;100178.50;10404016;28;20485;-60
2021/07/20 12:36:43;;;;;;;10.68;6.75;;;;;;;25.59;31.35;100172.50;10403663;28;20095;-59
2021/07/20 12:41:46;;;;;;;12.20;6.85;;;;;;;25.54;30.73;100171.41;10433437;28;20143;-59
2021/07/20 12:47:14;;;;;;;11.00;6.70;;;;;;;25.26;31.38;100168.44;10444008;28;20513;-59
2021/07/20 12:52:15;;;;;;;8.65;6.10;;;;;;;25.62;30.79;100172.16;10444348;28;20495;-59
2021/07/20 12:57:19;;;;;;;10.80;6.00;;;;;;;25.90;30.00;100167.00;10415122;28;20410;-60
2021/07/20 13:02:41;;;;;;;9.27;6.00;;;;;;;25.27;30.43;100167.41;10412919;28;20120;-59
2021/07/20 13:07:43;;;;;;;11.45;6.82;;;;;;;25.05;31.61;100161.06;10443822;28;20045;-59
2021/07/20 13:12:46;;;;;;;10.63;6.43;;;;;;;25.50;30.20;100160.22;10405303;28;20460;-59
2021/07/20 13:17:53;;;;;;;9.65;5.88;;;;;;;25.45;30.54;100165.28;10418114;28;20138;-59
2021/07/20 13:22:54;;;;;;;9.95;6.57;;;;;;;25.67;30.26;100156.34;10410676;28;20105;-59
2021/07/20 13:27:57;;;;;;;8.55;6.22;;;;;;;25.56;30.55;100153.28;10410932;28;20080;-59
2021/07/20 13:32:59;;;;;;;8.23;5.75;;;;;;;25.24;31.15;100154.41;10424544;28;20144;-59
2021/07/20 13:38:02;;;;;;;12.75;6.55;;;;;;;24.84;32.70;100157.38;10445769;28;20124;-60
2021/07/20 13:43:04;;;;;;;8.77;6.10;;;;;;;24.75;31.75;100158.44;10450451;28;20132;-59
2021/07/20 13:48:10;;;;;;;8.82;5.95;;;;;;;24.46;31.46;100166.25;10429870;28;20046;-59
2021/07/20 13:53:18;;;;;;;10.20;6.68;;;;;;;24.03;33.13;100167.56;10409873;28;20421;-60
2021/07/20 13:58:23;;;;;;;13.23;6.55;;;;;;;23.98;32.66;100162.75;10407505;28;20095;-59
2021/07/20 14:03:29;;;;;;;8.80;5.93;;;;;;;24.31;33.87;100160.00;10406225;28;20561;-60
2021/07/20 14:08:33;;;;;;;8.02;5.82;;;;;;;24.38;31.37;100155.63;10401232;28;20471;-60
2021/07/20 14:13:36;;;;;;;8.27;5.35;;;;;;;24.81;31.64;100153.22;10397354;28;20127;-60
2021/07/20 14:18:43;;;;;;;8.35;5.70;;;;;;;25.12;29.77;100139.78;10386708;28;20060;-60
2021/07/20 14:23:45;;;;;;;10.57;5.53;;;;;;;25.49;30.26;100139.00;10418677;28;20050;-60
2021/07/20 14:28:50;;;;;;;10.43;6.15;;;;;;;25.49;30.04;100142.47;10408221;28;20719;-60
2021/07/20 14:33:52;;;;;;;8.48;5.65;;;;;;;25.28;29.98;100144.16;10407829;28;20140;-60
2021/07/20 14:38:54;;;;;;;8.75;5.57;;;;;;;25.03;29.33;100146.19;10408237;28;20473;-60
2021/07/20 14:44:02;;;;;;;10.98;6.22;;;;;;;25.01;30.18;100145.56;10407319;28;20132;-59
2021/07/20 14:49:04;;;;;;;8.57;5.65;;;;;;;24.70;31.35;100142.91;10406449;28;20534;-60
2021/07/20 14:54:22;;;;;;;9.68;5.78;;;;;;;25.10;30.29;100145.28;10406478;28;20140;-60
2021/07/20 14:59:24;;;;;;;9.18;5.80;;;;;;;25.04;30.13;100140.66;10406372;28;20045;-60
2021/07/20 15:04:27;;;;;;;12.15;5.90;;;;;;;24.95;31.55;100132.88;10403458;28;20072;-60
2021/07/20 15:09:33;;;;;;;10.98;5.43;;;;;;;25.04;30.90;100143.34;10393580;28;20096;-60
2021/07/20 15:14:37;;;;;;;10.32;6.22;;;;;;;25.17;30.04;100137.38;10392940;28;20061;-59
2021/07/20 15:19:41;;;;;;;10.43;5.88;;;;;;;25.27;30.83;100129.94;10377767;28;20062;-60
2021/07/20 15:24:45;;;;;;;9.27;5.50;;;;;;;25.19;29.52;100135.38;10397360;28;20049;-60
2021/07/20 15:29:50;;;;;;;10.52;5.57;;;;;;;25.29;30.00;100135.09;10400860;28;20458;-59
2021/07/20 15:34:53;;;;;;;10.70;5.55;;;;;;;25.23;29.96;100130.47;10402656;28;20480;-60
2021/07/20 15:39:56;;;;;;;10.90;5.93;;;;;;;25.30;30.05;100128.75;10404376;28;20046;-60
2021/07/20 15:45:06;;;;;;;8.32;5.72;;;;;;;25.40;30.92;100135.56;10403503;28;20095;-60
2021/07/20 15:50:10;;;;;;;8.75;5.45;;;;;;;25.29;29.64;100132.44;10403207;28;20565;-60
2021/07/20 15:55:20;;;;;;;10.57;5.88;;;;;;;25.55;30.10;100136.38;10403089;28;20490;-60
2021/07/20 16:00:27;;;;;;;9.57;5.70;;;;;;;25.52;30.17;100130.56;10403816;28;20454;-59
2021/07/20 16:05:29;;;;;;;8.25;5.43;;;;;;;25.64;30.40;100132.63;10403437;28;20056;-60
2021/07/20 16:10:31;;;;;;;7.13;5.45;;;;;;;25.38;30.87;100136.75;10402093;28;20128;-59
2021/07/20 16:15:36;;;;;;;9.77;5.70;;;;;;;25.39;30.76;100138.38;10418070;28;20053;-59
2021/07/20 16:20:40;;;;;;;8.82;6.10;;;;;;;25.42;29.59;100138.03;10401840;28;20144;-59
2021/07/20 16:25:42;;;;;;;9.57;6.03;;;;;;;25.05;31.12;100141.50;10395559;28;20140;-59
2021/07/20 16:30:46;;;;;;;12.30;5.75;;;;;;;25.07;31.58;100137.66;10398352;28;20049;-59
2021/07/20 16:35:48;;;;;;;8.88;5.47;;;;;;;25.01;30.49;100138.38;10410082;28;20075;-59
2021/07/20 16:41:00;;;;;;;13.73;5.70;;;;;;;25.03;31.65;100140.84;10365899;28;20050;-59
2021/07/20 16:46:07;;;;;;;10.70;6.05;;;;;;;24.97;31.30;100144.25;10361176;28;20144;-59
2021/07/20 16:51:12;;;;;;;12.48;6.20;;;;;;;24.94;30.70;100137.41;10359316;28;20045;-59
2021/07/20 16:56:19;;;;;;;7.93;5.72;;;;;;;24.82;33.29;100135.31;10352805;28;20050;-59
2021/07/20 17:01:26;;;;;;;8.43;6.05;;;;;;;24.83;32.64;100137.00;10363996;28;20137;-59
2021/07/20 17:06:31;;;;;;;10.27;6.07;;;;;;;24.92;31.00;100135.91;10379950;28;20053;-59
2021/07/20 17:11:34;;;;;;;8.95;5.75;;;;;;;24.89;32.08;100136.28;10380511;28;20228;-60
2021/07/20 17:16:40;;;;;;;9.60;5.90;;;;;;;25.03;32.48;100138.19;10361210;28;20056;-59
2021/07/20 17:21:43;;;;;;;9.35;5.90;;;;;;;24.95;31.92;100138.25;10361823;28;20045;-59
2021/07/20 17:26:49;;;;;;;8.50;6.03;;;;;;;24.89;32.30;100133.59;10361280;28;20125;-59
2021/07/20 17:31:58;;;;;;;13.05;6.45;;;;;;;24.70;32.95;100140.22;10376260;28;20502;-59
2021/07/20 17:37:11;;;;;;;9.43;5.97;;;;;;;24.79;32.69;100149.91;10360297;28;20080;-59
2021/07/20 17:42:17;;;;;;;9.02;5.60;;;;;;;24.81;34.02;100149.72;10352606;28;20066;-59
2021/07/20 17:47:24;;;;;;;9.70;6.35;;;;;;;24.71;33.59;100151.75;10359051;28;20129;-59
2021/07/20 17:52:28;;;;;;;9.00;5.60;;;;;;;24.69;33.46;100153.78;10361679;28;20054;-59
2021/07/20 17:57:30;;;;;;;10.25;6.22;;;;;;;24.59;33.44;100156.66;10350537;28;20517;-59
2021/07/20 18:02:32;;;;;;;8.32;6.30;;;;;;;24.44;33.57;100160.25;10361715;28;20140;-59
2021/07/20 18:07:35;;;;;;;9.48;6.00;;;;;;;24.15;34.72;100172.41;10361645;28;20050;-59
2021/07/20 18:12:37;;;;;;;7.50;5.60;;;;;;;24.01;35.49;100170.44;10356697;28;20058;-59
2021/07/20 18:17:39;;;;;;;9.65;5.90;;;;;;;23.93;36.03;100181.16;10360960;28;20137;-59
2021/07/20 18:22:42;;;;;;;11.30;6.10;;;;;;;23.77;35.62;100181.19;10363314;28;20049;-59
2021/07/20 18:27:44;;;;;;;8.57;6.00;;;;;;;23.57;36.03;100187.06;10346964;28;20052;-59
2021/07/20 18:32:46;;;;;;;9.00;5.82;;;;;;;23.28;36.88;100182.19;10367246;28;20049;-59
2021/07/20 18:37:48;;;;;;;9.57;5.82;;;;;;;23.26;36.80;100186.88;10367973;28;20476;-58
2021/07/20 18:42:50;;;;;;;10.00;6.53;;;;;;;23.24;36.88;100197.72;10366454;28;20056;-59
2021/07/20 18:47:51;;;;;;;8.00;6.15;;;;;;;23.05;37.41;100202.50;10366138;28;20182;-59
2021/07/20 18:52:53;;;;;;;9.52;6.07;;;;;;;22.89;37.70;100197.16;10366661;28;20046;-59
2021/07/20 18:57:55;;;;;;;11.00;6.28;;;;;;;22.75;38.11;100203.97;10366677;28;20453;-59
2021/07/20 19:02:57;;;;;;;10.38;6.22;;;;;;;22.57;38.55;100205.88;10366798;28;20140;-59
2021/07/20 19:07:59;;;;;;;8.27;6.18;;;;;;;22.29;39.73;100215.09;10366468;28;20465;-59
2021/07/20 19:13:03;;;;;;;8.40;6.53;;;;;;;22.05;40.68;100215.78;10365431;28;21491;-59
2021/07/20 19:18:05;;;;;;;9.60;6.70;;;;;;;21.70;42.05;100215.91;10351945;28;20458;-59
2021/07/20 19:23:07;;;;;;;11.77;6.40;;;;;;;21.45;43.13;100220.19;10348798;28;20053;-59
2021/07/20 19:28:11;;;;;;;11.32;6.50;;;;;;;21.18;43.35;100228.22;10350171;28;20046;-58
2021/07/20 19:33:12;;;;;;;11.35;6.75;;;;;;;20.92;44.39;100238.78;10332753;28;20577;-59
2021/07/20 19:38:14;;;;;;;11.70;6.80;;;;;;;20.64;44.75;100241.59;10366089;28;20108;-59
2021/07/20 19:43:16;;;;;;;9.52;6.60;;;;;;;20.45;45.21;100258.44;10365298;28;20081;-59
2021/07/20 19:48:18;;;;;;;11.02;6.70;;;;;;;20.18;45.67;100258.41;10364350;28;20593;-58
2021/07/20 19:53:20;;;;;;;11.15;6.45;;;;;;;20.07;46.05;100266.56;10378510;28;20120;-58
2021/07/20 19:58:22;;;;;;;9.70;6.65;;;;;;;19.99;46.60;100269.09;10335872;28;20043;-58
2021/07/20 20:03:24;;;;;;;9.43;6.68;;;;;;;19.79;46.75;100280.66;10362079;28;20056;-59
2021/07/20 20:08:26;;;;;;;9.90;7.32;;;;;;;19.17;47.88;100307.63;10363003;28;20128;-58
2021/07/20 20:13:27;;;;;;;10.48;6.88;;;;;;;18.81;48.34;100301.06;10362436;28;20064;-58
2021/07/20 20:18:29;;;;;;;9.55;6.80;;;;;;;19.01;48.41;100297.50;10362966;28;20054;-59
2021/07/20 20:23:32;;;;;;;14.63;7.15;;;;;;;19.15;48.57;100305.13;10362306;28;20487;-58
2021/07/20 20:28:34;;;;;;;13.02;7.00;;;;;;;19.19;48.45;100314.47;10362355;28;20137;-58
2021/07/20 20:33:35;;;;;;;10.48;7.20;;;;;;;19.10;49.17;100319.72;10362738;28;20906;-58
2021/07/20 20:38:37;;;;;;;12.48;7.65;;;;;;;18.97;49.59;100317.28;10362939;28;20124;-59
2021/07/20 20:43:41;;;;;;;11.32;7.25;;;;;;;18.88;49.76;100326.06;10362231;28;20229;-58
2021/07/20 20:48:44;;;;;;;11.30;7.10;;;;;;;18.97;49.54;100330.56;10363382;28;20054;-59
2021/07/20 20:53:46;;;;;;;10.52;7.50;;;;;;;18.90;49.33;100336.53;10361185;28;20057;-59
2021/07/20 20:58:48;;;;;;;11.25;7.38;;;;;;;18.83;49.58;100338.88;10361598;28;20188;-58
2021/07/20 21:03:52;;;;;;;12.18;6.80;;;;;;;18.75;49.78;100344.00;10361921;28;20176;-59
2021/07/20 21:08:54;;;;;;;10.98;7.35;;;;;;;18.56;50.11;100350.06;10362032;28;20129;-59
2021/07/20 21:13:56;;;;;;;10.38;7.60;;;;;;;18.43;50.42;100359.19;10361585;28;20573;-58
2021/07/20 21:18:57;;;;;;;11.95;8.10;;;;;;;18.32;49.97;100362.75;10361539;28;20402;-58
2021/07/20 21:23:59;;;;;;;11.23;7.25;;;;;;;18.19;50.55;100359.47;10361438;28;20038;-58
2021/07/20 21:29:02;;;;;;;11.82;8.20;;;;;;;17.91;50.88;100370.69;10361102;28;20524;-58
2021/07/20 21:34:04;;;;;;;11.43;7.30;;;;;;;17.80;51.53;100373.34;10360693;28;20477;-58
2021/07/20 21:39:06;;;;;;;15.90;8.60;;;;;;;17.61;51.49;100370.53;10362279;28;20133;-59
2021/07/20 21:44:08;;;;;;;11.93;7.15;;;;;;;17.49;51.52;100366.25;10363019;28;20505;-58
2021/07/20 21:49:09;;;;;;;14.05;7.25;;;;;;;17.53;51.46;100379.09;10369200;28;20041;-58
2021/07/20 21:54:11;;;;;;;12.43;7.15;;;;;;;17.64;50.99;100373.78;10385265;28;20054;-58
2021/07/20 21:59:13;;;;;;;12.75;7.47;;;;;;;17.70;51.19;100386.50;10369535;28;20069;-58
2021/07/20 22:04:15;;;;;;;11.50;8.27;;;;;;;17.58;51.04;100390.16;10367678;28;20042;-58
2021/07/20 22:09:17;;;;;;;11.05;7.60;;;;;;;17.31;51.88;100399.44;10369092;28;20056;-58
2021/07/20 22:14:19;;;;;;;9.70;6.65;;;;;;;17.33;51.66;100398.38;10369025;28;20125;-58
2021/07/20 22:19:22;;;;;;;11.38;7.13;;;;;;;17.27;51.03;100401.50;10368478;28;20113;-58
2021/07/20 22:24:24;;;;;;;10.55;7.28;;;;;;;17.15;51.51;100404.25;10367943;28;20552;-58
2021/07/20 22:29:26;;;;;;;12.52;6.97;;;;;;;17.08;51.79;100406.53;10366817;28;20407;-58
2021/07/20 22:34:27;;;;;;;13.75;7.10;;;;;;;16.92;51.18;100406.06;10367325;28;20085;-59
2021/07/20 22:39:29;;;;;;;10.82;6.70;;;;;;;16.78;51.91;100411.59;10367940;28;20129;-58
2021/07/20 22:44:31;;;;;;;13.27;7.07;;;;;;;16.65;52.16;100411.69;10367375;28;20133;-58
2021/07/20 22:49:32;;;;;;;11.18;7.20;;;;;;;16.64;51.72;100412.69;10367333;28;20479;-58
2021/07/20 22:54:35;;;;;;;13.45;6.97;;;;;;;16.50;52.24;100419.97;10365845;28;20498;-58
2021/07/20 22:59:37;;;;;;;12.40;7.05;;;;;;;16.46;52.37;100423.81;10366672;28;20125;-59
2021/07/20 23:04:38;;;;;;;13.48;6.80;;;;;;;16.36;53.06;100426.28;10366938;28;20052;-58
2021/07/20 23:09:41;;;;;;;9.40;6.68;;;;;;;16.36;52.77;100430.72;10366565;28;20129;-59
2021/07/20 23:14:43;;;;;;;13.40;6.90;;;;;;;16.13;53.28;100437.72;10380793;28;20601;-58